createdAt,value
2022-10-27T00:00:01.218Z,99.99
2022-10-27T00:01:01.202Z,99.99
2022-10-27T00:02:01.195Z,99.99
2022-10-27T00:03:01.286Z,99.99
2022-10-27T00:04:01.178Z,99.99
2022-10-27T00:05:01.163Z,99.99
2022-10-27T00:06:01.150Z,99.99
2022-10-27T00:07:01.133Z,99.99
2022-10-27T00:08:01.127Z,99.99
2022-10-27T00:09:01.144Z,99.99
2022-10-27T00:10:01.112Z,99.99
2022-10-27T00:11:01.094Z,99.99
2022-10-27T00:12:01.085Z,99.99
2022-10-27T00:13:01.094Z,99.99
2022-10-27T00:14:01.084Z,99.99
2022-10-27T00:15:01.053Z,99.99
2022-10-27T00:16:01.034Z,99.99
2022-10-27T00:17:01.035Z,99.99
2022-10-27T00:18:01.014Z,99.99
2022-10-27T00:19:01.034Z,99.99
2022-10-27T00:20:01.109Z,99.99
2022-10-27T00:21:00.992Z,99.99
2022-10-27T00:22:00.973Z,99.99
2022-10-27T00:23:00.964Z,99.99
2022-10-27T00:24:00.983Z,99.99
2022-10-27T00:25:00.944Z,99.99
2022-10-27T00:26:00.935Z,99.99
2022-10-27T00:27:00.924Z,99.99
2022-10-27T00:28:00.914Z,99.99
2022-10-27T00:29:00.906Z,99.99
2022-10-27T00:30:00.916Z,99.99
2022-10-27T00:31:00.885Z,99.99
2022-10-27T00:32:00.878Z,99.99
2022-10-27T00:33:00.859Z,99.99
2022-10-27T00:34:00.847Z,99.99
2022-10-27T00:35:00.855Z,99.99
2022-10-27T00:36:00.825Z,99.99
2022-10-27T00:37:00.815Z,99.99
2022-10-27T00:38:00.806Z,99.99
2022-10-27T00:39:00.787Z,99.99
2022-10-27T00:40:00.803Z,99.99
2022-10-27T00:41:00.767Z,99.99
2022-10-27T00:42:00.760Z,99.99
2022-10-27T00:43:00.746Z,99.99
2022-10-27T00:44:00.740Z,99.99
2022-10-27T00:45:00.747Z,99.99
2022-10-27T00:46:00.717Z,99.99
2022-10-27T00:47:00.853Z,99.99
2022-10-27T00:48:00.698Z,99.99
2022-10-27T00:49:00.686Z,99.99
2022-10-27T00:50:00.700Z,99.99
2022-10-27T00:51:00.667Z,99.99
2022-10-27T00:52:00.657Z,99.99
2022-10-27T00:53:00.648Z,99.99
2022-10-27T00:54:00.628Z,99.99
2022-10-27T00:55:00.618Z,99.99
2022-10-27T00:56:00.632Z,99.99
2022-10-27T00:57:00.599Z,99.99
2022-10-27T00:58:00.590Z,99.99
2022-10-27T00:59:00.580Z,99.99
2022-10-27T01:00:00.559Z,99.99
2022-10-27T01:01:00.635Z,99.99
2022-10-27T01:02:00.551Z,99.99
2022-10-27T01:03:00.528Z,99.99
2022-10-27T01:04:00.520Z,99.99
2022-10-27T01:05:00.510Z,99.99
2022-10-27T01:06:00.501Z,99.99
2022-10-27T01:07:00.511Z,99.99
2022-10-27T01:08:00.481Z,99.99
2022-10-27T01:09:00.468Z,99.99
2022-10-27T01:10:00.459Z,99.99
2022-10-27T01:11:00.442Z,99.99
2022-10-27T01:12:00.441Z,99.99
2022-10-27T01:13:00.443Z,99.99
2022-10-27T01:14:00.419Z,99.99
2022-10-27T01:15:00.408Z,99.99
2022-10-27T01:16:00.394Z,99.99
2022-10-27T01:17:00.379Z,99.99
2022-10-27T01:18:00.372Z,99.99
2022-10-27T01:19:00.381Z,99.99
2022-10-27T01:20:00.364Z,99.99
2022-10-27T01:21:00.333Z,99.99
2022-10-27T01:22:00.349Z,99.99
2022-10-27T01:23:00.311Z,99.99
2022-10-27T01:24:00.322Z,99.99
2022-10-27T01:25:00.303Z,99.99
2022-10-27T01:26:00.284Z,99.99
2022-10-27T01:27:00.272Z,99.99
2022-10-27T01:28:00.263Z,99.99
2022-10-27T01:29:00.274Z,99.99
2022-10-27T01:30:00.251Z,99.99
2022-10-27T01:31:00.233Z,99.99
2022-10-27T01:32:00.221Z,99.99
2022-10-27T01:33:00.204Z,99.99
2022-10-27T01:34:00.202Z,99.99
2022-10-27T01:35:00.204Z,99.99
2022-10-27T01:36:00.204Z,99.99
2022-10-27T01:37:00.164Z,99.99
2022-10-27T01:38:00.152Z,99.99
2022-10-27T01:39:00.143Z,99.99
2022-10-27T01:40:00.155Z,99.99
2022-10-27T01:41:00.124Z,99.99
2022-10-27T01:42:00.116Z,99.99
2022-10-27T01:43:00.109Z,99.99
2022-10-27T01:44:00.095Z,99.99
2022-10-27T01:45:00.123Z,99.99
2022-10-27T01:46:00.067Z,99.99
2022-10-27T01:47:00.055Z,99.99
2022-10-27T01:48:00.046Z,99.99
2022-10-27T01:49:00.036Z,99.99
2022-10-27T01:50:00.031Z,99.99
2022-10-27T01:51:02.236Z,99.99
2022-10-27T01:52:00.035Z,99.99
2022-10-27T01:52:59.993Z,99.99
2022-10-27T01:53:59.986Z,99.99
2022-10-27T01:54:59.967Z,99.99
2022-10-27T01:55:59.964Z,99.99
2022-10-27T01:56:59.948Z,99.99
2022-10-27T01:57:59.956Z,99.99
2022-10-27T01:58:59.926Z,99.99
2022-10-27T01:59:59.919Z,99.99
2022-10-27T02:01:00.070Z,99.99
2022-10-27T02:01:59.896Z,99.99
2022-10-27T02:02:59.885Z,99.99
2022-10-27T02:03:59.877Z,99.99
2022-10-27T02:04:59.865Z,99.99
2022-10-27T02:05:59.856Z,99.99
2022-10-27T02:06:59.866Z,99.99
2022-10-27T02:07:59.837Z,99.99
2022-10-27T02:08:59.816Z,99.99
2022-10-27T02:09:59.807Z,99.99
2022-10-27T02:10:59.796Z,99.99
2022-10-27T02:11:59.787Z,99.99
2022-10-27T02:12:59.814Z,99.99
2022-10-27T02:13:59.768Z,99.99
2022-10-27T02:14:59.749Z,99.99
2022-10-27T02:15:59.756Z,99.99
2022-10-27T02:16:59.728Z,99.99
2022-10-27T02:17:59.749Z,99.99
2022-10-27T02:18:59.716Z,99.99
2022-10-27T02:19:59.707Z,99.99
2022-10-27T02:20:59.721Z,99.99
2022-10-27T02:21:59.677Z,99.99
2022-10-27T02:22:59.670Z,99.99
2022-10-27T02:23:59.698Z,99.99
2022-10-27T02:24:59.640Z,99.99
2022-10-27T02:25:59.636Z,99.99
2022-10-27T02:26:59.619Z,99.99
2022-10-27T02:27:59.614Z,99.99
2022-10-27T02:28:59.607Z,99.99
2022-10-27T02:29:59.618Z,99.99
2022-10-27T02:30:59.580Z,99.99
2022-10-27T02:31:59.569Z,99.99
2022-10-27T02:32:59.562Z,99.99
2022-10-27T02:33:59.549Z,99.99
2022-10-27T02:34:59.560Z,99.99
2022-10-27T02:35:59.551Z,99.99
2022-10-27T02:36:59.510Z,99.99
2022-10-27T02:37:59.501Z,99.99
2022-10-27T02:38:59.492Z,99.99
2022-10-27T02:39:59.501Z,99.99
2022-10-27T02:40:59.491Z,99.99
2022-10-27T02:41:59.461Z,99.99
2022-10-27T02:42:59.458Z,99.99
2022-10-27T02:43:59.450Z,99.99
2022-10-27T02:44:59.423Z,99.99
2022-10-27T02:45:59.440Z,99.99
2022-10-27T02:47:01.178Z,99.99
2022-10-27T02:47:59.393Z,99.99
2022-10-27T02:48:59.381Z,99.99
2022-10-27T02:49:59.381Z,99.99
2022-10-27T02:50:59.382Z,99.99
2022-10-27T02:51:59.358Z,99.99
2022-10-27T02:52:59.333Z,99.99
2022-10-27T02:53:59.330Z,99.99
2022-10-27T02:54:59.317Z,99.99
2022-10-27T02:55:59.341Z,99.99
2022-10-27T02:56:59.294Z,99.99
2022-10-27T02:57:59.283Z,99.99
2022-10-27T02:58:59.272Z,99.99
2022-10-27T02:59:59.262Z,99.99
2022-10-27T03:00:59.309Z,99.99
2022-10-27T03:01:59.352Z,99.99
2022-10-27T03:02:59.224Z,99.99
2022-10-27T03:03:59.220Z,99.99
2022-10-27T03:04:59.205Z,99.99
2022-10-27T03:05:59.204Z,99.99
2022-10-27T03:06:59.204Z,99.99
2022-10-27T03:07:59.194Z,99.99
2022-10-27T03:08:59.163Z,99.99
2022-10-27T03:09:59.157Z,99.99
2022-10-27T03:10:59.138Z,99.99
2022-10-27T03:11:59.146Z,99.99
2022-10-27T03:12:59.114Z,99.99
2022-10-27T03:13:59.104Z,99.99
2022-10-27T03:14:59.096Z,99.99
2022-10-27T03:15:59.084Z,99.99
2022-10-27T03:16:59.093Z,99.99
2022-10-27T03:17:59.069Z,99.99
2022-10-27T03:18:59.046Z,99.99
2022-10-27T03:20:59.037Z,99.99
2022-10-27T03:21:59.037Z,99.99
2022-10-27T03:22:59.005Z,99.99
2022-10-27T03:23:58.998Z,99.99
2022-10-27T03:24:58.984Z,99.99
2022-10-27T03:26:00.186Z,99.99
2022-10-27T03:26:58.976Z,99.99
2022-10-27T03:27:58.954Z,99.99
2022-10-27T03:28:58.934Z,99.99
2022-10-27T03:29:58.926Z,99.99
2022-10-27T03:30:58.917Z,99.99
2022-10-27T03:31:58.935Z,99.99
2022-10-27T03:32:58.886Z,99.99
2022-10-27T03:33:58.878Z,99.99
2022-10-27T03:34:58.865Z,99.99
2022-10-27T03:35:58.866Z,99.99
2022-10-27T03:36:58.845Z,99.99
2022-10-27T03:37:58.856Z,99.99
2022-10-27T03:38:58.826Z,99.99
2022-10-27T03:39:58.817Z,99.99
2022-10-27T03:40:58.800Z,99.99
2022-10-27T03:41:58.816Z,99.99
2022-10-27T03:42:59.085Z,99.99
2022-10-27T03:43:58.769Z,99.99
2022-10-27T03:44:58.777Z,99.99
2022-10-27T03:46:00.946Z,99.99
2022-10-27T03:46:58.737Z,99.99
2022-10-27T03:47:58.726Z,99.99
2022-10-27T03:48:58.717Z,99.99
2022-10-27T03:49:58.727Z,99.99
2022-10-27T03:50:58.687Z,99.99
2022-10-27T03:51:58.757Z,99.99
2022-10-27T03:52:58.670Z,99.99
2022-10-27T03:53:58.667Z,99.99
2022-10-27T03:54:58.669Z,99.99
2022-10-27T03:55:58.637Z,99.99
2022-10-27T03:56:58.630Z,99.99
2022-10-27T03:57:58.615Z,99.99
2022-10-27T03:58:58.598Z,99.99
2022-10-27T03:59:58.588Z,99.99
2022-10-27T04:00:58.631Z,99.99
2022-10-27T04:02:01.015Z,99.99
2022-10-27T04:02:59.550Z,99.99
2022-10-27T04:03:58.548Z,99.99
2022-10-27T04:04:58.559Z,99.99
2022-10-27T04:05:58.524Z,99.99
2022-10-27T04:06:58.530Z,99.99
2022-10-27T04:07:58.498Z,99.99
2022-10-27T04:08:58.555Z,99.99
2022-10-27T04:09:58.480Z,99.99
2022-10-27T04:10:58.460Z,99.99
2022-10-27T04:11:58.479Z,99.99
2022-10-27T04:12:58.440Z,99.99
2022-10-27T04:13:58.432Z,99.99
2022-10-27T04:14:58.419Z,99.99
2022-10-27T04:15:58.411Z,99.99
2022-10-27T04:16:58.401Z,99.99
2022-10-27T04:17:58.411Z,99.99
2022-10-27T04:18:58.374Z,99.99
2022-10-27T04:19:58.368Z,99.99
2022-10-27T04:20:58.350Z,99.99
2022-10-27T04:21:58.344Z,99.99
2022-10-27T04:22:58.351Z,99.99
2022-10-27T04:23:58.321Z,99.99
2022-10-27T04:24:58.313Z,99.99
2022-10-27T04:25:58.305Z,99.99
2022-10-27T04:26:58.311Z,99.99
2022-10-27T04:27:58.301Z,99.99
2022-10-27T04:28:58.262Z,99.99
2022-10-27T04:29:58.252Z,99.99
2022-10-27T04:30:58.244Z,99.99
2022-10-27T04:31:58.231Z,99.99
2022-10-27T04:32:58.234Z,99.99
2022-10-27T04:33:58.210Z,99.99
2022-10-27T04:34:58.197Z,99.99
2022-10-27T04:35:58.192Z,99.99
2022-10-27T04:36:58.170Z,99.99
2022-10-27T04:37:58.183Z,99.99
2022-10-27T04:38:58.158Z,99.99
2022-10-27T04:39:58.135Z,99.99
2022-10-27T04:40:58.123Z,99.99
2022-10-27T04:41:58.114Z,99.99
2022-10-27T04:42:58.134Z,99.99
2022-10-27T04:43:58.129Z,99.99
2022-10-27T04:44:58.091Z,99.99
2022-10-27T04:45:58.072Z,99.99
2022-10-27T04:46:58.062Z,99.99
2022-10-27T04:47:58.055Z,99.99
2022-10-27T04:48:58.072Z,99.99
2022-10-27T04:49:58.024Z,99.99
2022-10-27T04:50:58.023Z,99.99
2022-10-27T04:51:58.005Z,99.99
2022-10-27T04:52:57.999Z,99.99
2022-10-27T04:53:57.975Z,99.99
2022-10-27T04:54:58.003Z,99.99
2022-10-27T04:55:57.967Z,99.99
2022-10-27T04:56:57.954Z,99.99
2022-10-27T04:57:57.934Z,99.99
2022-10-27T04:58:57.934Z,99.99
2022-10-27T04:59:57.914Z,99.99
2022-10-27T05:00:57.925Z,99.99
2022-10-27T05:01:57.970Z,99.99
2022-10-27T05:02:58.034Z,99.99
2022-10-27T05:03:57.873Z,99.99
2022-10-27T05:04:57.865Z,99.99
2022-10-27T05:05:57.879Z,99.99
2022-10-27T05:06:57.837Z,99.99
2022-10-27T05:07:57.828Z,99.99
2022-10-27T05:08:57.842Z,99.99
2022-10-27T05:09:57.826Z,99.99
2022-10-27T05:10:57.816Z,99.99
2022-10-27T05:11:57.774Z,99.99
2022-10-27T05:12:57.799Z,99.99
2022-10-27T05:13:57.755Z,99.99
2022-10-27T05:14:57.745Z,99.99
2022-10-27T05:15:57.735Z,99.99
2022-10-27T05:16:57.745Z,99.99
2022-10-27T05:17:57.737Z,99.99
2022-10-27T05:18:57.705Z,99.99
2022-10-27T05:19:57.696Z,99.99
2022-10-27T05:20:57.683Z,99.99
2022-10-27T05:21:57.694Z,99.99
2022-10-27T05:22:57.658Z,99.99
2022-10-27T05:23:57.677Z,99.99
2022-10-27T05:24:57.637Z,99.99
2022-10-27T05:25:57.637Z,99.99
2022-10-27T05:26:57.617Z,99.99
2022-10-27T05:27:57.626Z,99.99
2022-10-27T05:28:57.711Z,99.99
2022-10-27T05:29:57.577Z,99.99
2022-10-27T05:30:57.580Z,99.99
2022-10-27T05:31:57.557Z,99.99
2022-10-27T05:32:57.547Z,99.99
2022-10-27T05:33:57.566Z,99.99
2022-10-27T05:34:57.529Z,99.99
2022-10-27T05:35:57.508Z,99.99
2022-10-27T05:36:57.499Z,99.99
2022-10-27T05:37:57.489Z,99.99
2022-10-27T05:38:57.508Z,99.99
2022-10-27T05:39:57.490Z,99.99
2022-10-27T05:40:57.579Z,99.99
2022-10-27T05:41:57.446Z,99.99
2022-10-27T05:42:57.437Z,99.99
2022-10-27T05:43:57.450Z,99.99
2022-10-27T05:44:57.409Z,99.99
2022-10-27T05:45:57.412Z,99.99
2022-10-27T05:46:57.389Z,99.99
2022-10-27T05:47:57.819Z,99.99
2022-10-27T05:48:57.368Z,99.99
2022-10-27T05:49:57.378Z,99.99
2022-10-27T05:50:57.368Z,99.99
2022-10-27T05:51:57.495Z,99.99
2022-10-27T05:52:57.497Z,99.99
2022-10-27T05:53:57.911Z,99.99
2022-10-27T05:54:57.380Z,99.99
2022-10-27T05:55:57.468Z,99.99
2022-10-27T05:56:57.349Z,99.99
2022-10-27T05:57:57.261Z,99.99
2022-10-27T05:58:57.415Z,99.99
2022-10-27T05:59:58.076Z,99.99
2022-10-27T06:00:57.671Z,99.99
2022-10-27T06:01:57.543Z,99.99
2022-10-27T06:02:57.330Z,99.99
2022-10-27T06:03:57.259Z,99.99
2022-10-27T06:04:57.213Z,99.99
2022-10-27T06:05:57.211Z,99.99
2022-10-27T06:06:57.198Z,99.99
2022-10-27T06:07:57.170Z,99.99
2022-10-27T06:08:57.150Z,99.99
2022-10-27T06:09:57.141Z,99.99
2022-10-27T06:10:57.168Z,99.99
2022-10-27T06:11:57.119Z,99.99
2022-10-27T06:12:57.121Z,99.99
2022-10-27T06:13:57.177Z,99.99
2022-10-27T06:14:57.113Z,99.99
2022-10-27T06:15:57.071Z,99.99
2022-10-27T06:16:57.082Z,99.99
2022-10-27T06:17:57.050Z,99.99
2022-10-27T06:18:57.161Z,99.99
2022-10-27T06:19:57.032Z,99.99
2022-10-27T06:20:57.041Z,99.99
2022-10-27T06:21:57.034Z,99.99
2022-10-27T06:22:57.001Z,99.99
2022-10-27T06:23:57.203Z,99.99
2022-10-27T06:24:56.979Z,99.99
2022-10-27T06:25:57.304Z,99.99
2022-10-27T06:26:57.152Z,99.99
2022-10-27T06:27:57.251Z,99.99
2022-10-27T06:28:56.954Z,99.99
2022-10-27T06:29:56.981Z,99.99
2022-10-27T06:30:56.911Z,99.99
2022-10-27T06:31:56.912Z,99.99
2022-10-27T06:32:57.271Z,99.99
2022-10-27T06:33:56.881Z,99.99
2022-10-27T06:34:56.865Z,99.99
2022-10-27T06:35:56.851Z,99.99
2022-10-27T06:36:56.864Z,99.99
2022-10-27T06:37:56.832Z,99.99
2022-10-27T06:38:56.824Z,99.99
2022-10-27T06:39:56.805Z,99.99
2022-10-27T06:40:56.795Z,99.99
2022-10-27T06:41:56.812Z,99.99
2022-10-27T06:43:12.187Z,99.99
2022-10-27T06:43:57.754Z,99.99
2022-10-27T06:44:56.752Z,99.99
2022-10-27T06:46:00.917Z,99.99
2022-10-27T06:46:57.753Z,99.99
2022-10-27T06:47:56.719Z,99.99
2022-10-27T06:48:56.807Z,99.99
2022-10-27T06:49:56.693Z,99.99
2022-10-27T06:50:56.684Z,99.99
2022-10-27T06:51:56.694Z,99.99
2022-10-27T06:52:56.668Z,99.99
2022-10-27T06:53:56.646Z,99.99
2022-10-27T06:54:56.664Z,99.99
2022-10-27T06:55:56.626Z,99.99
2022-10-27T06:56:56.644Z,99.99
2022-10-27T06:57:56.654Z,99.99
2022-10-27T06:58:56.594Z,99.99
2022-10-27T06:59:56.586Z,99.99
2022-10-27T07:00:56.577Z,99.99
2022-10-27T07:01:56.649Z,99.99
2022-10-27T07:02:56.577Z,99.99
2022-10-27T07:03:56.543Z,99.99
2022-10-27T07:04:56.551Z,99.99
2022-10-27T07:05:57.162Z,99.99
2022-10-27T07:06:56.505Z,99.99
2022-10-27T07:07:56.935Z,99.99
2022-10-27T07:08:56.493Z,99.99
2022-10-27T07:09:56.465Z,99.99
2022-10-27T07:10:56.471Z,99.99
2022-10-27T07:11:56.453Z,99.99
2022-10-27T07:12:56.466Z,99.99
2022-10-27T07:13:56.475Z,99.99
2022-10-27T07:14:56.415Z,99.99
2022-10-27T07:15:56.407Z,99.99
2022-10-27T07:16:56.429Z,99.99
2022-10-27T07:17:58.700Z,99.99
2022-10-27T07:18:56.368Z,99.99
2022-10-27T07:19:56.447Z,99.99
2022-10-27T07:20:56.377Z,99.99
2022-10-27T07:21:56.337Z,99.99
2022-10-27T07:22:56.324Z,99.99
2022-10-27T07:23:56.317Z,99.99
2022-10-27T07:24:56.307Z,99.99
2022-10-27T07:25:56.320Z,99.99
2022-10-27T07:26:56.278Z,99.99
2022-10-27T07:27:56.785Z,99.99
2022-10-27T07:28:56.256Z,99.99
2022-10-27T07:29:56.248Z,99.99
2022-10-27T07:30:56.258Z,99.99
2022-10-27T07:31:56.292Z,99.99
2022-10-27T07:32:56.226Z,99.99
2022-10-27T07:33:56.254Z,99.99
2022-10-27T07:34:56.197Z,99.99
2022-10-27T07:35:56.169Z,99.99
2022-10-27T07:36:56.187Z,99.99
2022-10-27T07:37:56.351Z,99.99
2022-10-27T07:38:56.149Z,99.99
2022-10-27T07:39:56.150Z,99.99
2022-10-27T07:40:56.120Z,99.99
2022-10-27T07:41:56.137Z,99.99
2022-10-27T07:42:56.160Z,99.99
2022-10-27T07:43:56.111Z,99.99
2022-10-27T07:44:56.100Z,99.99
2022-10-27T07:45:56.153Z,99.99
2022-10-27T07:46:56.081Z,99.99
2022-10-27T07:47:56.447Z,99.99
2022-10-27T07:48:56.031Z,99.99
2022-10-27T07:49:56.029Z,99.99
2022-10-27T07:50:56.085Z,99.99
2022-10-27T07:51:56.001Z,99.99
2022-10-27T07:52:56.548Z,99.99
2022-10-27T07:53:58.113Z,99.99
2022-10-27T07:54:56.493Z,99.99
2022-10-27T07:55:56.192Z,99.99
2022-10-27T07:56:55.960Z,99.99
2022-10-27T07:57:56.040Z,99.99
2022-10-27T07:58:56.021Z,99.99
2022-10-27T07:59:55.915Z,99.99
2022-10-27T08:00:55.986Z,99.99
2022-10-27T08:01:56.397Z,99.99
2022-10-27T08:02:55.901Z,99.99
2022-10-27T08:03:56.066Z,99.99
2022-10-27T08:04:56.041Z,99.99
2022-10-27T08:05:55.853Z,99.99
2022-10-27T08:06:55.871Z,99.99
2022-10-27T08:07:55.822Z,99.99
2022-10-27T08:08:55.859Z,99.99
2022-10-27T08:09:55.800Z,99.99
2022-10-27T08:10:55.804Z,99.99
2022-10-27T08:11:55.793Z,99.99
2022-10-27T08:12:55.939Z,99.99
2022-10-27T08:13:55.785Z,99.99
2022-10-27T08:14:56.041Z,99.99
2022-10-27T08:16:55.784Z,99.99
2022-10-27T08:17:55.856Z,99.99
2022-10-27T08:18:55.734Z,99.99
2022-10-27T08:19:55.714Z,99.99
2022-10-27T08:20:55.784Z,99.99
2022-10-27T08:21:55.682Z,99.99
2022-10-27T08:22:55.681Z,99.99
2022-10-27T08:23:55.653Z,99.99
2022-10-27T08:24:55.662Z,99.99
2022-10-27T08:25:55.626Z,99.99
2022-10-27T08:26:55.666Z,99.99
2022-10-27T08:27:55.818Z,99.99
2022-10-27T08:28:55.706Z,99.99
2022-10-27T08:29:55.646Z,99.99
2022-10-27T08:30:55.606Z,99.99
2022-10-27T08:31:55.563Z,99.99
2022-10-27T08:32:55.746Z,99.99
2022-10-27T08:33:55.538Z,99.86
2022-10-27T08:34:55.557Z,99.51
2022-10-27T08:35:55.607Z,99.21
2022-10-27T08:36:55.766Z,99.10
2022-10-27T08:37:55.497Z,98.85
2022-10-27T08:38:55.516Z,98.65
2022-10-27T08:39:55.507Z,98.20
2022-10-27T08:40:55.487Z,97.80
2022-10-27T08:41:55.529Z,97.60
2022-10-27T08:42:55.544Z,97.45
2022-10-27T08:43:55.451Z,97.25
2022-10-27T08:44:55.448Z,96.84
2022-10-27T08:45:55.409Z,96.13
2022-10-27T08:46:55.418Z,95.78
2022-10-27T08:47:55.449Z,95.58
2022-10-27T08:48:55.377Z,95.48
2022-10-27T08:49:55.540Z,95.23
2022-10-27T08:50:55.357Z,95.43
2022-10-27T08:51:55.339Z,95.34
2022-10-27T08:52:55.405Z,94.79
2022-10-27T08:53:55.321Z,94.59
2022-10-27T08:54:55.330Z,93.84
2022-10-27T08:55:55.301Z,93.23
2022-10-27T08:56:55.308Z,92.98
2022-10-27T08:57:55.413Z,92.58
2022-10-27T08:58:55.271Z,91.73
2022-10-27T08:59:55.269Z,91.33
2022-10-27T09:00:55.242Z,90.98
2022-10-27T09:01:55.356Z,90.28
2022-10-27T09:02:55.552Z,89.83
2022-10-27T09:03:55.212Z,88.78
2022-10-27T09:04:55.199Z,88.18
2022-10-27T09:06:55.200Z,86.99
2022-10-27T09:07:55.220Z,86.79
2022-10-27T09:08:55.165Z,86.34
2022-10-27T09:09:55.172Z,86.30
2022-10-27T09:10:58.216Z,85.36
2022-10-27T09:11:55.123Z,84.61
2022-10-27T09:12:55.132Z,83.87
2022-10-27T09:13:55.107Z,83.37
2022-10-27T09:14:55.102Z,82.82
2022-10-27T09:15:55.101Z,82.23
2022-10-27T09:16:55.064Z,81.48
2022-10-27T09:17:55.186Z,80.38
2022-10-27T09:18:55.045Z,80.44
2022-10-27T09:19:55.035Z,80.11
2022-10-27T09:20:55.507Z,79.21
2022-10-27T09:21:55.196Z,78.36
2022-10-27T09:22:55.003Z,78.03
2022-10-27T09:23:54.995Z,78.19
2022-10-27T09:24:55.136Z,77.49
2022-10-27T09:25:54.977Z,76.99
2022-10-27T09:26:54.956Z,76.49
2022-10-27T09:27:55.199Z,76.15
2022-10-27T09:28:54.981Z,75.72
2022-10-27T09:29:54.928Z,74.92
2022-10-27T09:30:54.975Z,75.22
2022-10-27T09:31:54.907Z,75.52
2022-10-27T09:32:55.345Z,75.12
2022-10-27T09:33:54.960Z,75.09
2022-10-27T09:34:54.870Z,74.62
2022-10-27T09:35:54.859Z,74.52
2022-10-27T09:36:54.848Z,75.26
2022-10-27T09:37:54.861Z,75.69
2022-10-27T09:38:54.991Z,75.16
2022-10-27T09:39:54.818Z,74.52
2022-10-27T09:40:54.935Z,73.69
2022-10-27T09:41:54.800Z,73.28
2022-10-27T09:42:54.998Z,72.49
2022-10-27T09:43:57.858Z,72.45
2022-10-27T09:44:54.770Z,72.25
2022-10-27T09:45:54.761Z,72.25
2022-10-27T09:46:54.766Z,71.95
2022-10-27T09:47:55.029Z,72.05
2022-10-27T09:48:54.751Z,71.36
2022-10-27T09:49:54.710Z,70.19
2022-10-27T09:50:54.699Z,69.02
2022-10-27T09:51:54.683Z,68.37
2022-10-27T09:52:54.680Z,67.24
2022-10-27T09:53:54.683Z,66.41
2022-10-27T09:54:55.742Z,64.98
2022-10-27T09:55:54.665Z,64.76
2022-10-27T09:56:54.633Z,64.03
2022-10-27T09:57:54.932Z,63.96
2022-10-27T09:58:54.634Z,63.83
2022-10-27T09:59:54.603Z,63.28
2022-10-27T10:00:54.591Z,62.29
2022-10-27T10:01:54.604Z,61.79
2022-10-27T10:02:54.666Z,62.51
2022-10-27T10:03:54.592Z,62.64
2022-10-27T10:04:54.566Z,62.88
2022-10-27T10:05:54.536Z,62.18
2022-10-27T10:06:54.523Z,61.52
2022-10-27T10:07:54.910Z,62.24
2022-10-27T10:08:54.497Z,62.51
2022-10-27T10:09:54.516Z,62.21
2022-10-27T10:10:54.481Z,62.12
2022-10-27T10:11:54.509Z,62.54
2022-10-27T10:12:54.703Z,62.67
2022-10-27T10:13:54.447Z,62.87
2022-10-27T10:14:54.459Z,62.34
2022-10-27T10:15:54.429Z,62.24
2022-10-27T10:16:54.418Z,63.13
2022-10-27T10:17:54.453Z,62.61
2022-10-27T10:18:54.389Z,62.12
2022-10-27T10:19:54.409Z,62.77
2022-10-27T10:20:54.370Z,63.57
2022-10-27T10:21:54.364Z,63.30
2022-10-27T10:22:54.654Z,63.00
2022-10-27T10:23:54.341Z,63.20
2022-10-27T10:24:54.351Z,62.34
2022-10-27T10:25:54.321Z,61.62
2022-10-27T10:26:54.302Z,61.39
2022-10-27T10:27:54.294Z,60.83
2022-10-27T10:28:54.334Z,60.05
2022-10-27T10:29:54.303Z,59.72
2022-10-27T10:30:54.283Z,59.72
2022-10-27T10:31:54.255Z,60.11
2022-10-27T10:32:54.570Z,60.44
2022-10-27T10:33:54.234Z,59.75
2022-10-27T10:34:54.243Z,59.78
2022-10-27T10:35:54.216Z,60.00
2022-10-27T10:36:54.194Z,59.58
2022-10-27T10:37:54.600Z,59.91
2022-10-27T10:38:54.177Z,60.07
2022-10-27T10:39:54.347Z,60.40
2022-10-27T10:40:54.161Z,60.66
2022-10-27T10:41:54.146Z,61.65
2022-10-27T10:42:54.137Z,60.83
2022-10-27T10:43:54.129Z,60.30
2022-10-27T10:44:54.120Z,59.58
2022-10-27T10:45:54.130Z,59.55
2022-10-27T10:46:54.089Z,59.05
2022-10-27T10:47:54.369Z,59.05
2022-10-27T10:48:54.071Z,59.18
2022-10-27T10:49:54.089Z,59.38
2022-10-27T10:50:54.070Z,59.05
2022-10-27T10:51:54.041Z,59.03
2022-10-27T10:52:54.504Z,57.98
2022-10-27T10:53:54.021Z,56.79
2022-10-27T10:54:54.025Z,57.81
2022-10-27T10:55:54.074Z,57.58
2022-10-27T10:56:54.028Z,56.86
2022-10-27T10:57:54.318Z,56.24
2022-10-27T10:58:53.962Z,56.04
2022-10-27T10:59:53.960Z,56.21
2022-10-27T11:00:54.052Z,56.14
2022-10-27T11:01:53.989Z,56.37
2022-10-27T11:02:58.232Z,56.76
2022-10-27T11:03:54.903Z,56.07
2022-10-27T11:04:53.897Z,56.57
2022-10-27T11:05:53.883Z,56.41
2022-10-27T11:06:53.906Z,57.60
2022-10-27T11:07:54.211Z,57.10
2022-10-27T11:08:53.926Z,56.54
2022-10-27T11:09:53.937Z,57.56
2022-10-27T11:10:53.921Z,57.85
2022-10-27T11:11:53.930Z,57.43
2022-10-27T11:12:54.531Z,56.93
2022-10-27T11:13:53.804Z,57.46
2022-10-27T11:14:54.894Z,57.68
2022-10-27T11:15:53.777Z,58.33
2022-10-27T11:16:53.787Z,58.65
2022-10-27T11:17:54.172Z,59.12
2022-10-27T11:18:53.738Z,58.56
2022-10-27T11:19:56.868Z,59.15
2022-10-27T11:20:53.719Z,58.95
2022-10-27T11:21:53.725Z,59.03
2022-10-27T11:22:53.726Z,58.80
2022-10-27T11:23:53.691Z,58.30
2022-10-27T11:24:53.680Z,58.11
2022-10-27T11:25:53.670Z,58.80
2022-10-27T11:26:53.664Z,59.03
2022-10-27T11:27:53.976Z,59.03
2022-10-27T11:28:53.633Z,58.80
2022-10-27T11:29:53.667Z,58.70
2022-10-27T11:30:56.722Z,58.90
2022-10-27T11:31:54.603Z,58.40
2022-10-27T11:32:54.050Z,58.92
2022-10-27T11:33:53.610Z,58.60
2022-10-27T11:34:53.565Z,57.75
2022-10-27T11:35:53.586Z,57.33
2022-10-27T11:36:53.572Z,56.09
2022-10-27T11:37:56.298Z,55.37
2022-10-27T11:38:53.536Z,55.30
2022-10-27T11:39:53.516Z,57.16
2022-10-27T11:40:53.506Z,57.39
2022-10-27T11:41:53.518Z,57.39
2022-10-27T11:42:53.655Z,58.20
2022-10-27T11:43:56.838Z,58.60
2022-10-27T11:44:54.459Z,58.07
2022-10-27T11:45:53.457Z,58.18
2022-10-27T11:46:53.471Z,57.98
2022-10-27T11:47:53.737Z,58.50
2022-10-27T11:48:53.418Z,58.53
2022-10-27T11:49:53.411Z,58.73
2022-10-27T11:50:53.397Z,58.86
2022-10-27T11:51:53.420Z,58.63
2022-10-27T11:52:53.380Z,58.20
2022-10-27T11:53:53.381Z,57.16
2022-10-27T11:54:53.353Z,56.41
2022-10-27T11:55:53.342Z,55.60
2022-10-27T11:56:53.350Z,54.75
2022-10-27T11:57:53.648Z,53.71
2022-10-27T11:58:53.311Z,53.19
2022-10-27T11:59:53.302Z,52.48
2022-10-27T12:00:53.297Z,52.28
2022-10-27T12:01:53.405Z,51.76
2022-10-27T12:02:53.309Z,51.64
2022-10-27T12:03:56.208Z,50.95
2022-10-27T12:04:53.245Z,51.15
2022-10-27T12:05:53.237Z,51.45
2022-10-27T12:06:53.244Z,51.74
2022-10-27T12:07:53.619Z,51.54
2022-10-27T12:08:53.204Z,51.05
2022-10-27T12:09:53.198Z,50.66
2022-10-27T12:10:53.190Z,50.14
2022-10-27T12:11:53.199Z,50.14
2022-10-27T12:12:53.646Z,50.24
2022-10-27T12:13:53.158Z,50.34
2022-10-27T12:14:53.141Z,50.44
2022-10-27T12:15:53.137Z,51.03
2022-10-27T12:16:53.146Z,50.88
2022-10-27T12:17:53.370Z,51.42
2022-10-27T12:18:53.102Z,52.68
2022-10-27T12:19:53.172Z,53.62
2022-10-27T12:20:53.079Z,54.09
2022-10-27T12:21:53.073Z,53.34
2022-10-27T12:22:53.294Z,53.05
2022-10-27T12:23:53.050Z,53.34
2022-10-27T12:24:53.033Z,52.78
2022-10-27T12:25:53.029Z,53.30
2022-10-27T12:26:53.012Z,53.69
2022-10-27T12:27:53.330Z,54.11
2022-10-27T12:28:52.992Z,54.53
2022-10-27T12:29:53.053Z,54.63
2022-10-27T12:30:54.456Z,54.41
2022-10-27T12:31:52.964Z,54.73
2022-10-27T12:32:53.285Z,54.24
2022-10-27T12:33:52.965Z,54.76
2022-10-27T12:34:52.934Z,54.83
2022-10-27T12:35:52.936Z,54.21
2022-10-27T12:36:52.913Z,54.44
2022-10-27T12:37:54.135Z,54.51
2022-10-27T12:38:52.918Z,54.31
2022-10-27T12:39:52.888Z,53.96
2022-10-27T12:40:52.868Z,53.05
2022-10-27T12:41:52.859Z,52.21
2022-10-27T12:42:52.848Z,51.72
2022-10-27T12:43:52.857Z,52.14
2022-10-27T12:44:52.882Z,52.43
2022-10-27T12:45:52.817Z,52.95
2022-10-27T12:46:52.800Z,52.43
2022-10-27T12:47:54.293Z,52.73
2022-10-27T12:48:52.801Z,52.83
2022-10-27T12:49:52.771Z,53.15
2022-10-27T12:50:52.762Z,53.44
2022-10-27T12:51:52.791Z,53.25
2022-10-27T12:52:52.962Z,53.15
2022-10-27T12:53:53.242Z,53.57
2022-10-27T12:54:52.776Z,53.69